sensor_id;sensor_type;location;lat;lon;timestamp;pressure;altitude;pressure_sealevel;temperature;humidity
55916;BME280;41826;53.246;-6.670;2022-12-07T00:01:27;101610.34;;;1.46;100.00
55916;BME280;41826;53.246;-6.670;2022-12-07T00:03:54;101612.00;;;1.27;100.00
55916;BME280;41826;53.246;-6.670;2022-12-07T00:06:25;101614.59;;;1.05;100.00
55916;BME280;41826;53.246;-6.670;2022-12-07T00:08:51;101613.28;;;1.17;100.00
55916;BME280;41826;53.246;-6.670;2022-12-07T00:11:19;101611.50;;;1.39;100.00
55916;BME280;41826;53.246;-6.670;2022-12-07T00:13:46;101610.25;;;1.49;100.00
55916;BME280;41826;53.246;-6.670;2022-12-07T00:16:16;101604.75;;;1.57;100.00
55916;BME280;41826;53.246;-6.670;2022-12-07T00:18:42;101607.41;;;1.56;100.00
55916;BME280;41826;53.246;-6.670;2022-12-07T00:21:13;101605.41;;;1.83;100.00
55916;BME280;41826;53.246;-6.670;2022-12-07T00:23:40;101603.00;;;1.78;100.00
55916;BME280;41826;53.246;-6.670;2022-12-07T00:26:35;101598.41;;;1.85;100.00
55916;BME280;41826;53.246;-6.670;2022-12-07T00:29:04;101602.31;;;1.95;100.00
55916;BME280;41826;53.246;-6.670;2022-12-07T00:31:32;101602.75;;;1.84;100.00
55916;BME280;41826;53.246;-6.670;2022-12-07T00:34:00;101595.06;;;1.83;100.00
55916;BME280;41826;53.246;-6.670;2022-12-07T00:36:25;101597.13;;;1.95;100.00
55916;BME280;41826;53.246;-6.670;2022-12-07T00:38:51;101598.28;;;1.88;100.00
55916;BME280;41826;53.246;-6.670;2022-12-07T00:41:18;101601.97;;;1.62;100.00
55916;BME280;41826;53.246;-6.670;2022-12-07T00:43:45;101613.34;;;1.15;100.00
55916;BME280;41826;53.246;-6.670;2022-12-07T00:46:12;101609.38;;;1.06;100.00
55916;BME280;41826;53.246;-6.670;2022-12-07T00:48:37;101607.44;;;1.12;100.00
55916;BME280;41826;53.246;-6.670;2022-12-07T00:51:03;101593.13;;;1.67;100.00
55916;BME280;41826;53.246;-6.670;2022-12-07T00:53:29;101596.19;;;1.35;100.00
55916;BME280;41826;53.246;-6.670;2022-12-07T00:55:55;101596.28;;;1.32;100.00
55916;BME280;41826;53.246;-6.670;2022-12-07T00:58:21;101602.00;;;1.40;100.00
55916;BME280;41826;53.246;-6.670;2022-12-07T01:00:46;101600.66;;;1.51;100.00
55916;BME280;41826;53.246;-6.670;2022-12-07T01:03:14;101596.41;;;1.50;100.00
55916;BME280;41826;53.246;-6.670;2022-12-07T01:05:40;101597.00;;;1.78;100.00
55916;BME280;41826;53.246;-6.670;2022-12-07T01:08:16;101587.06;;;1.87;100.00
55916;BME280;41826;53.246;-6.670;2022-12-07T01:11:01;101597.66;;;1.83;100.00
55916;BME280;41826;53.246;-6.670;2022-12-07T01:13:27;101591.41;;;1.46;100.00
55916;BME280;41826;53.246;-6.670;2022-12-07T01:16:13;101585.28;;;1.69;100.00
55916;BME280;41826;53.246;-6.670;2022-12-07T01:18:50;101598.38;;;1.44;100.00
55916;BME280;41826;53.246;-6.670;2022-12-07T01:21:20;101594.31;;;1.38;100.00
55916;BME280;41826;53.246;-6.670;2022-12-07T01:23:47;101596.72;;;1.43;100.00
55916;BME280;41826;53.246;-6.670;2022-12-07T01:26:18;101597.47;;;1.24;100.00
55916;BME280;41826;53.246;-6.670;2022-12-07T01:28:44;101594.22;;;1.19;100.00
55916;BME280;41826;53.246;-6.670;2022-12-07T01:31:16;101592.50;;;1.18;100.00
55916;BME280;41826;53.246;-6.670;2022-12-07T01:33:43;101588.38;;;1.57;100.00
55916;BME280;41826;53.246;-6.670;2022-12-07T01:38:49;101590.44;;;1.48;100.00
55916;BME280;41826;53.246;-6.670;2022-12-07T01:41:17;101590.47;;;1.26;100.00
55916;BME280;41826;53.246;-6.670;2022-12-07T01:46:53;101584.22;;;0.88;100.00
55916;BME280;41826;53.246;-6.670;2022-12-07T01:51:58;101574.06;;;1.27;100.00
55916;BME280;41826;53.246;-6.670;2022-12-07T01:54:26;101570.59;;;1.06;100.00
55916;BME280;41826;53.246;-6.670;2022-12-07T01:56:53;101572.56;;;1.00;100.00
55916;BME280;41826;53.246;-6.670;2022-12-07T01:59:23;101563.06;;;1.00;100.00
55916;BME280;41826;53.246;-6.670;2022-12-07T02:01:51;101554.38;;;1.23;100.00
55916;BME280;41826;53.246;-6.670;2022-12-07T02:04:17;101555.38;;;1.41;100.00
55916;BME280;41826;53.246;-6.670;2022-12-07T02:06:43;101547.94;;;1.54;100.00
55916;BME280;41826;53.246;-6.670;2022-12-07T02:09:12;101548.06;;;1.51;100.00
55916;BME280;41826;53.246;-6.670;2022-12-07T02:11:38;101553.88;;;1.36;100.00
55916;BME280;41826;53.246;-6.670;2022-12-07T02:14:05;101544.06;;;1.44;100.00
55916;BME280;41826;53.246;-6.670;2022-12-07T02:22:18;101541.44;;;1.85;100.00
55916;BME280;41826;53.246;-6.670;2022-12-07T02:25:13;101532.34;;;1.76;100.00
55916;BME280;41826;53.246;-6.670;2022-12-07T02:30:49;101544.06;;;1.64;100.00
55916;BME280;41826;53.246;-6.670;2022-12-07T02:33:21;101550.50;;;1.34;100.00
55916;BME280;41826;53.246;-6.670;2022-12-07T02:35:59;101554.34;;;1.03;100.00
55916;BME280;41826;53.246;-6.670;2022-12-07T02:38:35;101552.66;;;1.02;100.00
55916;BME280;41826;53.246;-6.670;2022-12-07T02:41:06;101556.56;;;0.90;100.00
55916;BME280;41826;53.246;-6.670;2022-12-07T02:43:37;101553.69;;;0.98;100.00
55916;BME280;41826;53.246;-6.670;2022-12-07T02:46:09;101563.66;;;0.85;100.00
55916;BME280;41826;53.246;-6.670;2022-12-07T02:48:37;101557.34;;;0.70;100.00
55916;BME280;41826;53.246;-6.670;2022-12-07T02:51:03;101561.91;;;0.63;100.00
55916;BME280;41826;53.246;-6.670;2022-12-07T02:53:31;101558.72;;;0.57;100.00
55916;BME280;41826;53.246;-6.670;2022-12-07T02:55:56;101549.38;;;0.53;100.00
55916;BME280;41826;53.246;-6.670;2022-12-07T03:01:15;101542.50;;;0.53;100.00
55916;BME280;41826;53.246;-6.670;2022-12-07T03:03:53;101545.50;;;0.64;100.00
55916;BME280;41826;53.246;-6.670;2022-12-07T03:06:28;101530.31;;;0.79;100.00
55916;BME280;41826;53.246;-6.670;2022-12-07T03:09:12;101538.16;;;0.76;100.00
55916;BME280;41826;53.246;-6.670;2022-12-07T03:12:01;101536.31;;;0.79;100.00
55916;BME280;41826;53.246;-6.670;2022-12-07T03:14:35;101529.53;;;0.99;100.00
55916;BME280;41826;53.246;-6.670;2022-12-07T03:17:10;101528.13;;;1.12;100.00
55916;BME280;41826;53.246;-6.670;2022-12-07T03:19:38;101530.31;;;1.21;100.00
55916;BME280;41826;53.246;-6.670;2022-12-07T03:22:07;101525.69;;;1.29;100.00
55916;BME280;41826;53.246;-6.670;2022-12-07T03:24:49;101520.38;;;1.33;100.00
55916;BME280;41826;53.246;-6.670;2022-12-07T03:27:24;101520.44;;;1.31;100.00
55916;BME280;41826;53.246;-6.670;2022-12-07T03:29:55;101526.56;;;1.08;100.00
55916;BME280;41826;53.246;-6.670;2022-12-07T03:32:53;101523.00;;;0.89;100.00
55916;BME280;41826;53.246;-6.670;2022-12-07T03:35:26;101522.13;;;0.90;100.00
55916;BME280;41826;53.246;-6.670;2022-12-07T03:40:25;101524.94;;;0.83;100.00
55916;BME280;41826;53.246;-6.670;2022-12-07T03:42:53;101522.00;;;0.71;100.00
55916;BME280;41826;53.246;-6.670;2022-12-07T03:45:24;101517.75;;;0.70;100.00
55916;BME280;41826;53.246;-6.670;2022-12-07T03:48:03;101518.69;;;0.67;100.00
55916;BME280;41826;53.246;-6.670;2022-12-07T03:50:40;101510.81;;;0.70;100.00
55916;BME280;41826;53.246;-6.670;2022-12-07T03:53:19;101511.34;;;0.78;100.00
55916;BME280;41826;53.246;-6.670;2022-12-07T03:55:48;101513.88;;;0.58;100.00
55916;BME280;41826;53.246;-6.670;2022-12-07T03:58:19;101517.50;;;0.54;100.00
55916;BME280;41826;53.246;-6.670;2022-12-07T04:00:46;101505.38;;;0.56;100.00
55916;BME280;41826;53.246;-6.670;2022-12-07T04:03:11;101510.75;;;0.50;100.00
55916;BME280;41826;53.246;-6.670;2022-12-07T04:05:37;101506.91;;;0.60;100.00
55916;BME280;41826;53.246;-6.670;2022-12-07T04:08:03;101509.44;;;0.61;100.00
55916;BME280;41826;53.246;-6.670;2022-12-07T04:10:28;101510.16;;;0.65;100.00
55916;BME280;41826;53.246;-6.670;2022-12-07T04:12:55;101504.88;;;0.68;100.00
55916;BME280;41826;53.246;-6.670;2022-12-07T04:15:20;101501.09;;;0.55;100.00
55916;BME280;41826;53.246;-6.670;2022-12-07T04:17:46;101505.97;;;0.62;100.00
55916;BME280;41826;53.246;-6.670;2022-12-07T04:20:12;101505.13;;;0.62;100.00
55916;BME280;41826;53.246;-6.670;2022-12-07T04:22:37;101512.56;;;0.70;100.00
55916;BME280;41826;53.246;-6.670;2022-12-07T04:25:03;101500.44;;;0.72;100.00
55916;BME280;41826;53.246;-6.670;2022-12-07T04:27:28;101506.56;;;0.69;100.00
55916;BME280;41826;53.246;-6.670;2022-12-07T04:29:54;101505.34;;;0.78;100.00
55916;BME280;41826;53.246;-6.670;2022-12-07T04:32:21;101503.19;;;0.67;100.00
55916;BME280;41826;53.246;-6.670;2022-12-07T04:34:46;101509.69;;;0.55;100.00
55916;BME280;41826;53.246;-6.670;2022-12-07T04:37:11;101498.38;;;0.58;100.00
55916;BME280;41826;53.246;-6.670;2022-12-07T04:39:37;101491.94;;;0.68;100.00
55916;BME280;41826;53.246;-6.670;2022-12-07T04:42:02;101488.34;;;0.72;100.00
55916;BME280;41826;53.246;-6.670;2022-12-07T04:44:28;101480.84;;;0.66;100.00
55916;BME280;41826;53.246;-6.670;2022-12-07T04:46:54;101488.19;;;0.77;100.00
55916;BME280;41826;53.246;-6.670;2022-12-07T04:49:21;101480.91;;;0.64;100.00
55916;BME280;41826;53.246;-6.670;2022-12-07T04:51:47;101480.66;;;0.71;100.00
55916;BME280;41826;53.246;-6.670;2022-12-07T04:54:14;101480.84;;;0.66;100.00
55916;BME280;41826;53.246;-6.670;2022-12-07T04:56:42;101471.41;;;0.43;100.00
55916;BME280;41826;53.246;-6.670;2022-12-07T04:59:09;101478.19;;;0.24;100.00
55916;BME280;41826;53.246;-6.670;2022-12-07T05:01:35;101479.13;;;0.21;100.00
55916;BME280;41826;53.246;-6.670;2022-12-07T05:04:01;101473.97;;;0.21;100.00
55916;BME280;41826;53.246;-6.670;2022-12-07T05:06:26;101477.41;;;0.21;100.00
55916;BME280;41826;53.246;-6.670;2022-12-07T05:08:52;101481.25;;;0.10;100.00
55916;BME280;41826;53.246;-6.670;2022-12-07T05:11:18;101469.53;;;0.25;100.00
55916;BME280;41826;53.246;-6.670;2022-12-07T05:14:03;101480.59;;;0.28;100.00
55916;BME280;41826;53.246;-6.670;2022-12-07T05:16:29;101486.94;;;0.19;100.00
55916;BME280;41826;53.246;-6.670;2022-12-07T05:18:54;101485.00;;;0.25;100.00
55916;BME280;41826;53.246;-6.670;2022-12-07T05:21:20;101483.84;;;0.33;100.00
55916;BME280;41826;53.246;-6.670;2022-12-07T05:23:45;101483.91;;;0.54;100.00
55916;BME280;41826;53.246;-6.670;2022-12-07T05:26:10;101478.19;;;0.68;100.00
55916;BME280;41826;53.246;-6.670;2022-12-07T05:28:36;101479.03;;;0.90;100.00
55916;BME280;41826;53.246;-6.670;2022-12-07T05:31:02;101482.19;;;0.76;100.00
55916;BME280;41826;53.246;-6.670;2022-12-07T05:33:27;101489.28;;;0.71;100.00
55916;BME280;41826;53.246;-6.670;2022-12-07T05:35:53;101481.03;;;0.61;100.00
55916;BME280;41826;53.246;-6.670;2022-12-07T05:38:18;101489.59;;;0.40;100.00
55916;BME280;41826;53.246;-6.670;2022-12-07T05:40:43;101486.13;;;0.41;100.00
55916;BME280;41826;53.246;-6.670;2022-12-07T05:43:10;101484.56;;;0.37;100.00
55916;BME280;41826;53.246;-6.670;2022-12-07T05:45:35;101472.31;;;0.42;100.00
55916;BME280;41826;53.246;-6.670;2022-12-07T05:48:01;101485.50;;;0.34;100.00
55916;BME280;41826;53.246;-6.670;2022-12-07T05:50:26;101480.19;;;0.39;100.00
55916;BME280;41826;53.246;-6.670;2022-12-07T05:52:53;101478.19;;;0.46;100.00
55916;BME280;41826;53.246;-6.670;2022-12-07T05:55:18;101481.94;;;0.38;100.00
55916;BME280;41826;53.246;-6.670;2022-12-07T05:57:44;101484.56;;;0.37;100.00
55916;BME280;41826;53.246;-6.670;2022-12-07T06:00:29;101477.63;;;0.15;100.00
55916;BME280;41826;53.246;-6.670;2022-12-07T06:02:54;101469.59;;;0.23;100.00
55916;BME280;41826;53.246;-6.670;2022-12-07T06:05:20;101465.25;;;0.46;100.00
55916;BME280;41826;53.246;-6.670;2022-12-07T06:07:45;101471.13;;;0.51;100.00
55916;BME280;41826;53.246;-6.670;2022-12-07T06:10:11;101466.19;;;0.45;100.00
55916;BME280;41826;53.246;-6.670;2022-12-07T06:12:36;101468.22;;;0.36;100.00
55916;BME280;41826;53.246;-6.670;2022-12-07T06:15:05;101462.63;;;0.47;100.00
55916;BME280;41826;53.246;-6.670;2022-12-07T06:17:30;101450.06;;;0.60;100.00
55916;BME280;41826;53.246;-6.670;2022-12-07T06:19:56;101458.31;;;0.48;100.00
55916;BME280;41826;53.246;-6.670;2022-12-07T06:22:21;101457.47;;;0.47;100.00
55916;BME280;41826;53.246;-6.670;2022-12-07T06:24:46;101450.56;;;0.48;100.00
55916;BME280;41826;53.246;-6.670;2022-12-07T06:27:12;101457.44;;;0.49;100.00
55916;BME280;41826;53.246;-6.670;2022-12-07T06:29:37;101454.28;;;0.40;100.00
55916;BME280;41826;53.246;-6.670;2022-12-07T06:32:03;101438.03;;;0.38;100.00
55916;BME280;41826;53.246;-6.670;2022-12-07T06:34:30;101450.19;;;0.35;100.00
55916;BME280;41826;53.246;-6.670;2022-12-07T06:36:55;101459.56;;;0.37;100.00
55916;BME280;41826;53.246;-6.670;2022-12-07T06:39:23;101447.78;;;0.30;100.00
55916;BME280;41826;53.246;-6.670;2022-12-07T06:41:50;101449.34;;;0.34;100.00
55916;BME280;41826;53.246;-6.670;2022-12-07T06:44:17;101450.50;;;0.27;100.00
55916;BME280;41826;53.246;-6.670;2022-12-07T06:46:43;101453.19;;;0.24;100.00
55916;BME280;41826;53.246;-6.670;2022-12-07T06:49:08;101448.81;;;0.26;100.00
55916;BME280;41826;53.246;-6.670;2022-12-07T06:51:34;101445.50;;;0.22;100.00
55916;BME280;41826;53.246;-6.670;2022-12-07T06:54:07;101437.69;;;0.24;100.00
55916;BME280;41826;53.246;-6.670;2022-12-07T06:56:32;101440.47;;;0.19;100.00
55916;BME280;41826;53.246;-6.670;2022-12-07T06:58:57;101444.25;;;0.11;100.00
55916;BME280;41826;53.246;-6.670;2022-12-07T07:01:23;101456.03;;;0.18;100.00
55916;BME280;41826;53.246;-6.670;2022-12-07T07:03:48;101455.00;;;0.22;100.00
55916;BME280;41826;53.246;-6.670;2022-12-07T07:06:17;101442.88;;;0.24;100.00
55916;BME280;41826;53.246;-6.670;2022-12-07T07:08:42;101443.56;;;0.06;100.00
55916;BME280;41826;53.246;-6.670;2022-12-07T07:11:08;101453.78;;;0.09;100.00
55916;BME280;41826;53.246;-6.670;2022-12-07T07:13:34;101445.63;;;0.19;100.00
55916;BME280;41826;53.246;-6.670;2022-12-07T07:16:00;101447.41;;;0.17;100.00
55916;BME280;41826;53.246;-6.670;2022-12-07T07:18:26;101456.19;;;0.13;100.00
55916;BME280;41826;53.246;-6.670;2022-12-07T07:20:52;101449.31;;;0.12;100.00
55916;BME280;41826;53.246;-6.670;2022-12-07T07:23:18;101447.03;;;0.05;100.00
55916;BME280;41826;53.246;-6.670;2022-12-07T07:25:47;101446.06;;;-0.15;100.00
55916;BME280;41826;53.246;-6.670;2022-12-07T07:28:13;101442.31;;;-0.08;100.00
55916;BME280;41826;53.246;-6.670;2022-12-07T07:30:42;101437.06;;;-0.05;100.00
55916;BME280;41826;53.246;-6.670;2022-12-07T07:33:09;101440.03;;;-0.15;100.00
55916;BME280;41826;53.246;-6.670;2022-12-07T07:35:34;101437.28;;;-0.11;100.00
55916;BME280;41826;53.246;-6.670;2022-12-07T07:38:00;101444.91;;;-0.08;100.00
55916;BME280;41826;53.246;-6.670;2022-12-07T07:40:26;101448.56;;;-0.13;100.00
55916;BME280;41826;53.246;-6.670;2022-12-07T07:42:53;101444.31;;;-0.14;100.00
55916;BME280;41826;53.246;-6.670;2022-12-07T07:45:20;101442.41;;;-0.09;100.00
55916;BME280;41826;53.246;-6.670;2022-12-07T07:47:47;101450.16;;;-0.09;100.00
55916;BME280;41826;53.246;-6.670;2022-12-07T07:50:13;101449.88;;;-0.25;100.00
55916;BME280;41826;53.246;-6.670;2022-12-07T07:52:39;101447.66;;;-0.36;100.00
55916;BME280;41826;53.246;-6.670;2022-12-07T07:55:05;101453.03;;;-0.42;100.00
55916;BME280;41826;53.246;-6.670;2022-12-07T07:57:30;101457.78;;;-0.55;100.00
55916;BME280;41826;53.246;-6.670;2022-12-07T07:59:56;101456.78;;;-0.51;100.00
55916;BME280;41826;53.246;-6.670;2022-12-07T08:02:22;101452.00;;;-0.61;100.00
55916;BME280;41826;53.246;-6.670;2022-12-07T08:04:48;101450.84;;;-0.53;100.00
55916;BME280;41826;53.246;-6.670;2022-12-07T08:07:14;101458.50;;;-0.51;100.00
55916;BME280;41826;53.246;-6.670;2022-12-07T08:09:40;101457.03;;;-0.58;100.00
55916;BME280;41826;53.246;-6.670;2022-12-07T08:12:05;101464.72;;;-0.57;100.00
55916;BME280;41826;53.246;-6.670;2022-12-07T08:14:31;101463.78;;;-0.54;100.00
55916;BME280;41826;53.246;-6.670;2022-12-07T08:16:57;101462.31;;;-0.61;100.00
55916;BME280;41826;53.246;-6.670;2022-12-07T08:19:23;101457.56;;;-0.74;100.00
55916;BME280;41826;53.246;-6.670;2022-12-07T08:21:49;101460.56;;;-0.61;100.00
55916;BME280;41826;53.246;-6.670;2022-12-07T08:24:17;101461.34;;;-0.59;100.00
55916;BME280;41826;53.246;-6.670;2022-12-07T08:26:43;101456.44;;;-0.65;100.00
55916;BME280;41826;53.246;-6.670;2022-12-07T08:29:08;101466.22;;;-0.75;100.00
55916;BME280;41826;53.246;-6.670;2022-12-07T08:31:34;101457.16;;;-0.61;100.00
55916;BME280;41826;53.246;-6.670;2022-12-07T08:33:59;101466.84;;;-0.68;100.00
55916;BME280;41826;53.246;-6.670;2022-12-07T08:36:24;101467.63;;;-0.66;100.00
55916;BME280;41826;53.246;-6.670;2022-12-07T08:38:50;101469.25;;;-0.63;100.00
55916;BME280;41826;53.246;-6.670;2022-12-07T08:41:16;101458.59;;;-0.53;100.00
55916;BME280;41826;53.246;-6.670;2022-12-07T08:43:41;101475.00;;;-0.55;100.00
55916;BME280;41826;53.246;-6.670;2022-12-07T08:46:21;101465.41;;;-0.52;100.00
55916;BME280;41826;53.246;-6.670;2022-12-07T08:48:53;101470.53;;;-0.50;100.00
55916;BME280;41826;53.246;-6.670;2022-12-07T08:51:21;101468.00;;;-0.52;100.00
55916;BME280;41826;53.246;-6.670;2022-12-07T08:53:47;101469.66;;;-0.51;100.00
55916;BME280;41826;53.246;-6.670;2022-12-07T08:56:13;101468.09;;;-0.55;100.00
55916;BME280;41826;53.246;-6.670;2022-12-07T08:58:39;101459.47;;;-0.54;100.00
55916;BME280;41826;53.246;-6.670;2022-12-07T09:01:05;101458.91;;;-0.62;100.00
55916;BME280;41826;53.246;-6.670;2022-12-07T09:03:30;101456.84;;;-0.52;100.00
55916;BME280;41826;53.246;-6.670;2022-12-07T09:05:57;101457.56;;;-0.49;100.00
55916;BME280;41826;53.246;-6.670;2022-12-07T09:08:28;101450.41;;;-0.40;100.00
55916;BME280;41826;53.246;-6.670;2022-12-07T09:10:55;101440.41;;;-0.50;100.00
55916;BME280;41826;53.246;-6.670;2022-12-07T09:13:20;101447.47;;;-0.55;100.00
55916;BME280;41826;53.246;-6.670;2022-12-07T09:15:45;101437.34;;;-0.61;100.00
55916;BME280;41826;53.246;-6.670;2022-12-07T09:18:11;101447.66;;;-0.61;100.00
55916;BME280;41826;53.246;-6.670;2022-12-07T09:20:36;101440.53;;;-0.53;100.00
55916;BME280;41826;53.246;-6.670;2022-12-07T09:23:02;101434.56;;;-0.30;100.00
55916;BME280;41826;53.246;-6.670;2022-12-07T09:25:27;101440.44;;;-0.26;100.00
55916;BME280;41826;53.246;-6.670;2022-12-07T09:27:56;101449.75;;;-0.22;100.00
55916;BME280;41826;53.246;-6.670;2022-12-07T09:30:22;101444.72;;;-0.25;100.00
55916;BME280;41826;53.246;-6.670;2022-12-07T09:32:48;101447.22;;;-0.24;100.00
55916;BME280;41826;53.246;-6.670;2022-12-07T09:35:13;101442.44;;;-0.34;100.00
55916;BME280;41826;53.246;-6.670;2022-12-07T09:37:38;101442.59;;;-0.39;100.00
55916;BME280;41826;53.246;-6.670;2022-12-07T09:40:05;101447.25;;;-0.49;100.00
55916;BME280;41826;53.246;-6.670;2022-12-07T09:42:36;101443.13;;;-0.53;100.00
55916;BME280;41826;53.246;-6.670;2022-12-07T09:45:05;101445.16;;;-0.37;100.00
55916;BME280;41826;53.246;-6.670;2022-12-07T09:47:33;101448.84;;;-0.45;100.00
55916;BME280;41826;53.246;-6.670;2022-12-07T09:50:07;101450.59;;;-0.45;100.00
55916;BME280;41826;53.246;-6.670;2022-12-07T09:52:37;101444.34;;;-0.39;100.00
55916;BME280;41826;53.246;-6.670;2022-12-07T09:55:03;101459.59;;;-0.33;100.00
55916;BME280;41826;53.246;-6.670;2022-12-07T09:57:30;101459.50;;;-0.30;100.00
55916;BME280;41826;53.246;-6.670;2022-12-07T10:00:00;101448.69;;;-0.16;100.00
55916;BME280;41826;53.246;-6.670;2022-12-07T10:02:41;101448.78;;;-0.19;100.00
55916;BME280;41826;53.246;-6.670;2022-12-07T10:05:13;101447.88;;;-0.18;100.00
55916;BME280;41826;53.246;-6.670;2022-12-07T10:07:40;101440.94;;;-0.16;100.00
55916;BME280;41826;53.246;-6.670;2022-12-07T10:10:32;101435.78;;;-0.16;100.00
55916;BME280;41826;53.246;-6.670;2022-12-07T10:13:03;101435.66;;;-0.13;100.00
55916;BME280;41826;53.246;-6.670;2022-12-07T10:15:51;101437.56;;;0.05;100.00
55916;BME280;41826;53.246;-6.670;2022-12-07T10:18:38;101437.69;;;0.24;100.00
55916;BME280;41826;53.246;-6.670;2022-12-07T10:23:40;101428.53;;;0.39;100.00
55916;BME280;41826;53.246;-6.670;2022-12-07T10:26:29;101434.47;;;0.41;100.00
55916;BME280;41826;53.246;-6.670;2022-12-07T10:28:59;101432.06;;;0.36;100.00
55916;BME280;41826;53.246;-6.670;2022-12-07T10:31:24;101422.88;;;0.29;100.00
55916;BME280;41826;53.246;-6.670;2022-12-07T10:34:13;101418.13;;;0.18;100.00
55916;BME280;41826;53.246;-6.670;2022-12-07T10:36:40;101421.56;;;0.19;100.00
55916;BME280;41826;53.246;-6.670;2022-12-07T10:39:14;101422.34;;;0.21;100.00
55916;BME280;41826;53.246;-6.670;2022-12-07T10:42:00;101418.97;;;0.19;100.00
55916;BME280;41826;53.246;-6.670;2022-12-07T10:44:29;101413.34;;;0.31;100.00
55916;BME280;41826;53.246;-6.670;2022-12-07T10:50:02;101404.66;;;0.32;100.00
55916;BME280;41826;53.246;-6.670;2022-12-07T11:00:21;101379.94;;;0.49;100.00
55916;BME280;41826;53.246;-6.670;2022-12-07T11:03:05;101384.59;;;0.61;100.00
55916;BME280;41826;53.246;-6.670;2022-12-07T11:08:51;101391.25;;;0.67;100.00
55916;BME280;41826;53.246;-6.670;2022-12-07T11:11:36;101390.16;;;0.72;100.00
55916;BME280;41826;53.246;-6.670;2022-12-07T11:14:28;101390.09;;;0.74;100.00
55916;BME280;41826;53.246;-6.670;2022-12-07T11:16:57;101391.81;;;0.73;100.00
55916;BME280;41826;53.246;-6.670;2022-12-07T11:32:20;101363.03;;;0.82;100.00
55916;BME280;41826;53.246;-6.670;2022-12-07T11:41:02;101348.81;;;0.93;100.00
55916;BME280;41826;53.246;-6.670;2022-12-07T11:46:12;101356.50;;;0.94;100.00
55916;BME280;41826;53.246;-6.670;2022-12-07T11:49:13;101345.13;;;0.98;100.00
55916;BME280;41826;53.246;-6.670;2022-12-07T11:51:42;101347.66;;;1.00;100.00
55916;BME280;41826;53.246;-6.670;2022-12-07T11:54:19;101351.00;;;1.02;100.00
55916;BME280;41826;53.246;-6.670;2022-12-07T11:56:48;101339.56;;;1.07;100.00
55916;BME280;41826;53.246;-6.670;2022-12-07T11:59:38;101331.66;;;1.11;100.00
55916;BME280;41826;53.246;-6.670;2022-12-07T12:02:13;101339.16;;;1.17;100.00
55916;BME280;41826;53.246;-6.670;2022-12-07T12:04:50;101329.53;;;1.20;100.00
55916;BME280;41826;53.246;-6.670;2022-12-07T12:07:22;101320.78;;;1.23;100.00
55916;BME280;41826;53.246;-6.670;2022-12-07T12:09:55;101314.63;;;1.25;100.00
55916;BME280;41826;53.246;-6.670;2022-12-07T12:22:55;101292.00;;;1.30;100.00
55916;BME280;41826;53.246;-6.670;2022-12-07T12:25:25;101290.88;;;1.36;100.00
55916;BME280;41826;53.246;-6.670;2022-12-07T12:27:52;101291.84;;;1.34;100.00
55916;BME280;41826;53.246;-6.670;2022-12-07T12:33:15;101281.00;;;1.25;100.00
55916;BME280;41826;53.246;-6.670;2022-12-07T12:35:42;101270.19;;;1.36;100.00
55916;BME280;41826;53.246;-6.670;2022-12-07T12:38:31;101271.38;;;1.48;100.00
55916;BME280;41826;53.246;-6.670;2022-12-07T12:40:59;101251.44;;;1.50;100.00
55916;BME280;41826;53.246;-6.670;2022-12-07T12:43:47;101253.53;;;1.42;100.00
55916;BME280;41826;53.246;-6.670;2022-12-07T12:49:37;101253.41;;;1.45;100.00
55916;BME280;41826;53.246;-6.670;2022-12-07T12:54:35;101245.41;;;1.68;100.00
55916;BME280;41826;53.246;-6.670;2022-12-07T12:57:17;101241.06;;;1.69;100.00
55916;BME280;41826;53.246;-6.670;2022-12-07T13:16:35;101219.72;;;2.00;100.00
55916;BME280;41826;53.246;-6.670;2022-12-07T13:18:40;101220.41;;;2.04;100.00
55916;BME280;41826;53.246;-6.670;2022-12-07T13:34:32;101201.44;;;2.21;100.00
55916;BME280;41826;53.246;-6.670;2022-12-07T13:37:26;101204.63;;;2.26;100.00
55916;BME280;41826;53.246;-6.670;2022-12-07T13:39:52;101201.78;;;2.30;100.00
55916;BME280;41826;53.246;-6.670;2022-12-07T13:42:35;101206.84;;;2.33;100.00
55916;BME280;41826;53.246;-6.670;2022-12-07T13:45:23;101204.13;;;2.35;100.00
55916;BME280;41826;53.246;-6.670;2022-12-07T13:48:24;101202.47;;;2.34;100.00
55916;BME280;41826;53.246;-6.670;2022-12-07T13:50:54;101198.44;;;2.46;100.00
55916;BME280;41826;53.246;-6.670;2022-12-07T13:53:20;101192.66;;;2.41;100.00
55916;BME280;41826;53.246;-6.670;2022-12-07T13:55:47;101196.91;;;2.42;100.00
55916;BME280;41826;53.246;-6.670;2022-12-07T13:58:13;101197.72;;;2.42;100.00
55916;BME280;41826;53.246;-6.670;2022-12-07T14:00:39;101197.50;;;2.47;100.00
55916;BME280;41826;53.246;-6.670;2022-12-07T14:05:37;101182.50;;;2.53;100.00
55916;BME280;41826;53.246;-6.670;2022-12-07T14:11:01;101172.44;;;2.63;100.00
55916;BME280;41826;53.246;-6.670;2022-12-07T14:15:52;101165.00;;;2.57;100.00
55916;BME280;41826;53.246;-6.670;2022-12-07T14:18:27;101170.84;;;2.60;100.00
55916;BME280;41826;53.246;-6.670;2022-12-07T14:23:32;101155.75;;;2.69;100.00
55916;BME280;41826;53.246;-6.670;2022-12-07T14:26:15;101156.84;;;2.65;100.00
55916;BME280;41826;53.246;-6.670;2022-12-07T14:28:42;101153.75;;;2.74;100.00
55916;BME280;41826;53.246;-6.670;2022-12-07T14:31:14;101145.47;;;2.83;100.00
55916;BME280;41826;53.246;-6.670;2022-12-07T14:33:40;101150.06;;;2.78;100.00
55916;BME280;41826;53.246;-6.670;2022-12-07T14:36:09;101147.16;;;2.84;100.00
55916;BME280;41826;53.246;-6.670;2022-12-07T14:38:35;101136.63;;;2.87;100.00
55916;BME280;41826;53.246;-6.670;2022-12-07T14:41:00;101131.38;;;2.89;100.00
55916;BME280;41826;53.246;-6.670;2022-12-07T14:43:45;101133.78;;;2.92;100.00
55916;BME280;41826;53.246;-6.670;2022-12-07T14:46:10;101127.50;;;2.96;100.00
55916;BME280;41826;53.246;-6.670;2022-12-07T14:48:35;101133.03;;;2.90;100.00
55916;BME280;41826;53.246;-6.670;2022-12-07T14:51:01;101125.91;;;2.93;100.00